createdAt,value
2018-01-22T00:00:06.543Z,100614.36
2018-01-22T00:02:33.937Z,100618.09
2018-01-22T00:05:01.343Z,100619.33
2018-01-22T00:07:28.779Z,100609.14
2018-01-22T00:09:56.185Z,100606.66
2018-01-22T00:12:23.566Z,100612.23
2018-01-22T00:14:51.052Z,100598.48
2018-01-22T00:17:18.467Z,100592.42
2018-01-22T00:19:45.845Z,100582.52
2018-01-22T00:22:13.264Z,100578.61
2018-01-22T00:24:40.654Z,100579.09
2018-01-22T00:27:08.063Z,100571.67
2018-01-22T00:29:35.467Z,100553.56
2018-01-22T00:32:02.902Z,100552.11
2018-01-22T00:34:30.298Z,100544.71
2018-01-22T00:36:57.710Z,100537.18
2018-01-22T00:39:25.110Z,100539.97
2018-01-22T00:41:52.514Z,100541.00
2018-01-22T00:44:19.916Z,100539.58
2018-01-22T00:46:47.311Z,100524.49
2018-01-22T00:49:14.713Z,100509.50
2018-01-22T00:51:42.102Z,100497.39
2018-01-22T00:54:09.536Z,100492.16
2018-01-22T00:56:36.947Z,100479.08
2018-01-22T00:59:04.347Z,100480.14
2018-01-22T01:01:31.751Z,100470.22
2018-01-22T01:03:59.151Z,100461.03
2018-01-22T01:06:26.556Z,100459.62
2018-01-22T01:08:53.941Z,100463.55
2018-01-22T01:11:21.353Z,100461.19
2018-01-22T01:13:49.291Z,100456.41
2018-01-22T01:16:16.694Z,100442.05
2018-01-22T01:18:44.096Z,100433.13
2018-01-22T01:21:11.508Z,100423.27
2018-01-22T01:23:38.913Z,100412.12
2018-01-22T01:26:06.734Z,100410.20
2018-01-22T01:28:34.222Z,100404.57
2018-01-22T01:31:01.647Z,100402.87
2018-01-22T01:33:29.063Z,100396.05
2018-01-22T01:35:56.459Z,100393.94
2018-01-22T01:38:23.864Z,100387.56
2018-01-22T01:40:51.266Z,100383.42
2018-01-22T01:43:18.972Z,100394.00
2018-01-22T01:45:46.359Z,100403.55
2018-01-22T01:48:13.778Z,100400.91
2018-01-22T01:50:41.162Z,100396.87
2018-01-22T01:53:08.563Z,100390.29
2018-01-22T01:55:35.959Z,100397.73
2018-01-22T01:58:03.367Z,100402.87
2018-01-22T02:00:30.771Z,100416.20
2018-01-22T02:02:58.174Z,100422.42
2018-01-22T02:05:25.570Z,100427.83
2018-01-22T02:07:52.974Z,100430.50
2018-01-22T02:10:20.382Z,100414.58
2018-01-22T02:12:47.802Z,100400.66
2018-01-22T02:15:15.198Z,100385.94
2018-01-22T02:17:42.605Z,100370.91
2018-01-22T02:20:10.002Z,100356.16
2018-01-22T02:22:37.398Z,100358.73
2018-01-22T02:25:04.836Z,100358.34
2018-01-22T02:27:32.272Z,100350.77
2018-01-22T02:29:59.654Z,100366.16
2018-01-22T02:32:27.050Z,100363.81
2018-01-22T02:34:54.458Z,100353.53
2018-01-22T02:37:21.879Z,100335.77
2018-01-22T02:39:49.261Z,100325.74
2018-01-22T02:42:16.659Z,100324.31
2018-01-22T02:44:44.062Z,100320.77
2018-01-22T02:47:11.454Z,100316.47
2018-01-22T02:49:38.954Z,100317.05
2018-01-22T02:52:06.356Z,100314.09
2018-01-22T02:54:33.862Z,100317.16
2018-01-22T02:57:01.250Z,100320.57
2018-01-22T02:59:28.658Z,100319.50
2018-01-22T03:01:56.076Z,100313.73
2018-01-22T03:04:23.562Z,100311.91
2018-01-22T03:06:50.952Z,100308.98
2018-01-22T03:09:18.347Z,100294.02
2018-01-22T03:11:45.838Z,100289.89
2018-01-22T03:14:13.234Z,100281.91
2018-01-22T03:16:40.646Z,100272.09
2018-01-22T03:19:08.038Z,100264.70
2018-01-22T03:21:35.443Z,100258.64
2018-01-22T03:24:02.834Z,100247.45
2018-01-22T03:26:30.270Z,100234.20
2018-01-22T03:28:57.665Z,100225.55
2018-01-22T03:31:25.068Z,100217.63
2018-01-22T03:33:52.466Z,100211.97
2018-01-22T03:36:19.876Z,100212.67
2018-01-22T03:38:47.326Z,100212.25
2018-01-22T03:41:14.726Z,100218.30
2018-01-22T03:43:42.125Z,100225.38
2018-01-22T03:46:09.535Z,100235.76
2018-01-22T03:48:36.972Z,100242.27
2018-01-22T03:51:04.361Z,100230.91
2018-01-22T03:53:31.775Z,100221.30
2018-01-22T03:55:59.186Z,100208.78
2018-01-22T03:58:26.586Z,100218.34
2018-01-22T04:00:54.019Z,100222.64
2018-01-22T04:03:21.521Z,100220.42
2018-01-22T04:05:48.915Z,100210.08
2018-01-22T04:08:16.311Z,100193.41
2018-01-22T04:10:43.731Z,100173.53
2018-01-22T04:13:11.134Z,100164.45
2018-01-22T04:15:38.513Z,100150.57
2018-01-22T04:18:05.951Z,100164.81
2018-01-22T04:20:33.352Z,100178.95
2018-01-22T04:23:00.759Z,100189.50
2018-01-22T04:25:28.151Z,100184.29
2018-01-22T04:27:55.554Z,100172.61
2018-01-22T04:30:22.966Z,100164.88
2018-01-22T04:32:50.379Z,100162.62
2018-01-22T04:35:17.799Z,100168.98
2018-01-22T04:37:45.206Z,100173.42
2018-01-22T04:40:12.602Z,100183.13
2018-01-22T04:42:40.019Z,100200.81
2018-01-22T04:45:07.419Z,100209.09
2018-01-22T04:47:34.913Z,100206.69
2018-01-22T04:50:02.346Z,100202.25
2018-01-22T04:52:29.742Z,100202.67
2018-01-22T04:54:57.146Z,100197.15
2018-01-22T04:57:24.604Z,100183.56
2018-01-22T04:59:52.006Z,100186.56
2018-01-22T05:02:19.450Z,100179.50
2018-01-22T05:04:46.842Z,100182.75
2018-01-22T05:07:14.253Z,100172.09
2018-01-22T05:09:41.655Z,100165.17
2018-01-22T05:12:09.059Z,100157.63
2018-01-22T05:14:36.445Z,100162.04
2018-01-22T05:17:03.879Z,100163.72
2018-01-22T05:19:31.288Z,100149.12
2018-01-22T05:21:58.680Z,100131.92
2018-01-22T05:24:26.081Z,100119.77
2018-01-22T05:26:53.467Z,100115.14
2018-01-22T05:29:20.909Z,100106.34
2018-01-22T05:31:48.377Z,100102.16
2018-01-22T05:34:15.779Z,100105.45
2018-01-22T05:36:43.262Z,100094.66
2018-01-22T05:39:10.818Z,100090.95
2018-01-22T05:41:38.371Z,100089.84
2018-01-22T05:44:05.890Z,100084.97
2018-01-22T05:46:34.434Z,100082.70
2018-01-22T05:49:02.114Z,100077.35
2018-01-22T05:51:29.694Z,100068.70
2018-01-22T05:53:57.373Z,100073.59
2018-01-22T05:56:24.842Z,100068.81
2018-01-22T05:58:52.451Z,100075.52
2018-01-22T06:01:19.886Z,100082.94
2018-01-22T06:03:47.278Z,100063.33
2018-01-22T06:06:14.756Z,100061.53
2018-01-22T06:08:42.154Z,100061.53
2018-01-22T06:11:09.595Z,100051.92
2018-01-22T06:13:36.981Z,100046.87
2018-01-22T06:16:04.366Z,100040.09
2018-01-22T06:18:31.766Z,100034.43
2018-01-22T06:20:59.206Z,100031.68
2018-01-22T06:23:26.606Z,100037.58
2018-01-22T06:25:54.798Z,100033.41
2018-01-22T06:28:22.206Z,100040.33
2018-01-22T06:30:49.602Z,100030.95
2018-01-22T06:33:17.027Z,100036.62
2018-01-22T06:35:44.503Z,100034.98
2018-01-22T06:38:11.932Z,100019.20
2018-01-22T06:40:39.322Z,100024.06
2018-01-22T06:43:06.734Z,100017.63
2018-01-22T06:45:34.147Z,100017.91
2018-01-22T06:48:01.543Z,100010.78
2018-01-22T06:50:28.957Z,100000.37
2018-01-22T06:52:56.374Z,99988.94
2018-01-22T06:55:23.761Z,99988.94
2018-01-22T06:57:51.350Z,99979.02
2018-01-22T07:00:18.758Z,99978.53
2018-01-22T07:02:46.915Z,99983.96
2018-01-22T07:05:14.303Z,99981.31
2018-01-22T07:07:41.695Z,99984.91
2018-01-22T07:10:09.090Z,99989.62
2018-01-22T07:12:36.501Z,99996.39
2018-01-22T07:15:03.906Z,99984.56
2018-01-22T07:17:31.317Z,99995.74
2018-01-22T07:19:58.833Z,99987.62
2018-01-22T07:22:26.254Z,99994.33
2018-01-22T07:24:53.659Z,100003.66
2018-01-22T07:27:21.063Z,99984.15
2018-01-22T07:29:48.458Z,99975.92
2018-01-22T07:32:15.854Z,99987.23
2018-01-22T07:34:43.254Z,99966.38
2018-01-22T07:37:10.652Z,99969.48
2018-01-22T07:39:38.050Z,99968.34
2018-01-22T07:42:05.452Z,99960.91
2018-01-22T07:44:32.856Z,99959.72
2018-01-22T07:47:00.263Z,99968.75
2018-01-22T07:49:27.663Z,99958.96
2018-01-22T07:51:55.059Z,99958.54
2018-01-22T07:54:22.457Z,99955.52
2018-01-22T07:56:49.873Z,99965.77
2018-01-22T07:59:17.250Z,99964.13
2018-01-22T08:01:44.650Z,99950.72
2018-01-22T08:04:12.092Z,99950.56
2018-01-22T08:06:39.482Z,99954.13
2018-01-22T08:09:06.870Z,99947.16
2018-01-22T08:11:34.270Z,99947.08
2018-01-22T08:14:01.672Z,99955.31
2018-01-22T08:16:29.086Z,99950.30
2018-01-22T08:18:56.539Z,99952.64
2018-01-22T08:21:23.941Z,99946.70
2018-01-22T08:23:51.334Z,99949.08
2018-01-22T08:26:18.738Z,99946.59
2018-01-22T08:28:46.153Z,99946.48
2018-01-22T08:31:13.556Z,99945.01
2018-01-22T08:33:40.941Z,99949.64
2018-01-22T08:36:08.358Z,99946.05
2018-01-22T08:38:35.766Z,99948.92
2018-01-22T08:41:03.171Z,99940.05
2018-01-22T08:43:30.562Z,99942.39
2018-01-22T08:45:57.982Z,99939.67
2018-01-22T08:48:25.450Z,99940.30
2018-01-22T08:50:52.862Z,99939.91
2018-01-22T08:53:20.252Z,99948.17
2018-01-22T08:55:47.650Z,99940.96
2018-01-22T08:58:15.058Z,99944.62
2018-01-22T09:00:42.455Z,99946.51
2018-01-22T09:03:09.845Z,99941.13
2018-01-22T09:05:37.246Z,99938.86
2018-01-22T09:08:04.642Z,99946.63
2018-01-22T09:10:32.058Z,99931.30
2018-01-22T09:12:59.455Z,99921.04
2018-01-22T09:15:26.859Z,99922.56
2018-01-22T09:17:54.251Z,99917.22
2018-01-22T09:20:21.670Z,99910.55
2018-01-22T09:22:49.068Z,99902.91
2018-01-22T09:25:16.453Z,99893.63
2018-01-22T09:27:43.867Z,99888.08
2018-01-22T09:30:11.285Z,99878.30
2018-01-22T09:32:38.675Z,99876.28
2018-01-22T09:35:06.063Z,99879.31
2018-01-22T09:37:33.469Z,99885.81
2018-01-22T09:40:00.884Z,99888.59
2018-01-22T09:42:28.281Z,99889.09
2018-01-22T09:44:55.706Z,99893.07
2018-01-22T09:47:23.111Z,99906.51
2018-01-22T09:49:50.506Z,99904.48
2018-01-22T09:52:17.927Z,99906.55
2018-01-22T09:54:45.314Z,99908.83
2018-01-22T09:57:12.723Z,99900.43
2018-01-22T09:59:40.093Z,99904.92
2018-01-22T10:02:07.550Z,99890.91
2018-01-22T10:04:34.975Z,99895.89
2018-01-22T10:07:02.396Z,99896.36
2018-01-22T10:09:29.809Z,99892.54
2018-01-22T10:11:57.226Z,99899.55
2018-01-22T10:14:24.601Z,99908.53
2018-01-22T10:16:51.986Z,99906.86
2018-01-22T10:19:19.382Z,99904.63
2018-01-22T10:21:46.775Z,99906.77
2018-01-22T10:24:14.182Z,99900.69
2018-01-22T10:26:41.574Z,99905.94
2018-01-22T10:29:08.970Z,99905.77
2018-01-22T10:31:36.357Z,99908.20
2018-01-22T10:34:03.756Z,99906.44
2018-01-22T10:36:31.148Z,99896.95
2018-01-22T10:38:58.560Z,99893.87
2018-01-22T10:41:25.951Z,99889.97
2018-01-22T10:43:53.347Z,99888.66
2018-01-22T10:46:20.735Z,99881.95
2018-01-22T10:48:48.142Z,99882.03
2018-01-22T10:51:15.547Z,99876.62
2018-01-22T10:53:42.937Z,99863.04
2018-01-22T10:56:10.330Z,99861.03
2018-01-22T10:58:37.725Z,99854.94
2018-01-22T11:01:05.142Z,99856.90
2018-01-22T11:03:32.534Z,99857.45
2018-01-22T11:05:59.946Z,99852.53
2018-01-22T11:08:27.382Z,99862.44
2018-01-22T11:10:54.807Z,99865.44
2018-01-22T11:13:22.171Z,99865.06
2018-01-22T11:15:55.229Z,99863.45
2018-01-22T11:18:22.722Z,99868.05
2018-01-22T11:20:50.126Z,99858.02
2018-01-22T11:23:17.522Z,99857.45
2018-01-22T11:25:44.921Z,99861.28
2018-01-22T11:28:12.326Z,99865.75
2018-01-22T11:30:39.737Z,99865.96
2018-01-22T11:33:07.259Z,99863.48
2018-01-22T11:35:34.675Z,99860.47
2018-01-22T11:38:02.082Z,99857.58
2018-01-22T11:40:29.470Z,99848.82
2018-01-22T11:42:56.874Z,99841.36
2018-01-22T11:45:24.263Z,99845.84
2018-01-22T11:47:51.653Z,99853.34
2018-01-22T11:50:19.042Z,99845.33
2018-01-22T11:52:46.498Z,99846.58
2018-01-22T11:55:13.886Z,99850.54
2018-01-22T11:57:41.305Z,99847.19
2018-01-22T12:00:08.707Z,99845.30
2018-01-22T12:02:36.099Z,99843.45
2018-01-22T12:05:03.500Z,99840.07
2018-01-22T12:07:30.890Z,99841.16
2018-01-22T12:09:58.278Z,99838.25
2018-01-22T12:12:25.682Z,99839.12
2018-01-22T12:14:53.086Z,99837.56
2018-01-22T12:17:20.503Z,99835.38
2018-01-22T12:19:47.917Z,99830.09
2018-01-22T12:22:15.317Z,99826.49
2018-01-22T12:24:42.819Z,99819.66
2018-01-22T12:27:10.254Z,99827.68
2018-01-22T12:29:37.672Z,99827.80
2018-01-22T12:32:05.075Z,99828.78
2018-01-22T12:34:32.466Z,99834.05
2018-01-22T12:36:59.854Z,99832.05
2018-01-22T12:39:27.310Z,99830.00
2018-01-22T12:41:54.690Z,99830.20
2018-01-22T12:44:22.117Z,99827.00
2018-01-22T12:46:49.505Z,99832.87
2018-01-22T12:49:16.898Z,99831.48
2018-01-22T12:51:44.307Z,99838.36
2018-01-22T12:54:12.066Z,99840.37
2018-01-22T12:56:39.459Z,99833.76
2018-01-22T12:59:06.864Z,99832.69
2018-01-22T13:01:34.246Z,99834.02
2018-01-22T13:04:01.654Z,99831.56
2018-01-22T13:06:29.038Z,99833.22
2018-01-22T13:08:56.509Z,99828.08
2018-01-22T13:11:23.898Z,99830.97
2018-01-22T13:13:51.327Z,99839.80
2018-01-22T13:16:18.911Z,99842.28
2018-01-22T13:18:46.320Z,99842.52
2018-01-22T13:21:13.703Z,99845.41
2018-01-22T13:23:41.148Z,99846.38
2018-01-22T13:26:08.539Z,99850.37
2018-01-22T13:28:35.974Z,99860.08
2018-01-22T13:31:03.443Z,99858.34
2018-01-22T13:33:30.827Z,99855.08
2018-01-22T13:35:58.234Z,99857.48
2018-01-22T13:38:25.622Z,99863.34
2018-01-22T13:40:58.758Z,99865.80
2018-01-22T13:43:26.141Z,99869.16
2018-01-22T13:45:53.760Z,99876.95
2018-01-22T13:48:21.182Z,99876.63
2018-01-22T13:50:48.585Z,99881.08
2018-01-22T13:53:15.983Z,99881.24
2018-01-22T13:55:43.375Z,99886.04
2018-01-22T13:58:10.767Z,99879.95
2018-01-22T14:00:38.187Z,99883.64
2018-01-22T14:03:05.558Z,99879.45
2018-01-22T14:05:32.966Z,99876.26
2018-01-22T14:08:00.355Z,99878.94
2018-01-22T14:10:27.754Z,99878.91
2018-01-22T14:12:55.168Z,99885.52
2018-01-22T14:15:22.559Z,99895.44
2018-01-22T14:17:49.978Z,99892.83
2018-01-22T14:20:17.393Z,99904.59
2018-01-22T14:22:44.786Z,99902.87
2018-01-22T14:25:12.179Z,99901.56
2018-01-22T14:27:39.580Z,99899.98
2018-01-22T14:30:06.974Z,99902.21
2018-01-22T14:32:34.387Z,99914.76
2018-01-22T14:35:01.799Z,99907.19
2018-01-22T14:37:29.217Z,99913.31
2018-01-22T14:39:56.621Z,99916.61
2018-01-22T14:42:24.019Z,99921.95
2018-01-22T14:44:51.416Z,99924.46
2018-01-22T14:47:18.837Z,99924.83
2018-01-22T14:49:46.224Z,99930.39
2018-01-22T14:52:13.626Z,99933.52
2018-01-22T14:54:41.003Z,99934.84
2018-01-22T14:57:08.402Z,99935.09
2018-01-22T14:59:35.788Z,99938.80
2018-01-22T15:02:03.190Z,99941.02
2018-01-22T15:04:30.586Z,99948.36
2018-01-22T15:06:57.977Z,99951.42
2018-01-22T15:09:25.385Z,99959.88
2018-01-22T15:11:52.777Z,99963.87
2018-01-22T15:14:20.190Z,99969.94
2018-01-22T15:16:47.618Z,99967.45
2018-01-22T15:19:15.030Z,99971.06
2018-01-22T15:21:42.426Z,99965.77
2018-01-22T15:24:09.839Z,99971.19
2018-01-22T15:26:37.247Z,99975.67
2018-01-22T15:29:04.645Z,99983.58
2018-01-22T15:31:32.039Z,99980.87
2018-01-22T15:33:59.455Z,99993.24
2018-01-22T15:36:26.852Z,99985.95
2018-01-22T15:38:54.267Z,100000.44
2018-01-22T15:41:21.671Z,100002.30
2018-01-22T15:43:49.074Z,99999.88
2018-01-22T15:46:16.462Z,100002.18
2018-01-22T15:48:43.876Z,100014.16
2018-01-22T15:51:11.286Z,100009.19
2018-01-22T15:53:38.701Z,100009.73
2018-01-22T15:56:06.102Z,100017.73
2018-01-22T15:58:33.515Z,100026.96
2018-01-22T16:01:00.922Z,100034.97
2018-01-22T16:03:28.392Z,100025.46
2018-01-22T16:05:55.832Z,100027.43
2018-01-22T16:08:23.230Z,100033.58
2018-01-22T16:10:50.631Z,100042.59
2018-01-22T16:13:18.023Z,100049.06
2018-01-22T16:15:45.426Z,100052.25
2018-01-22T16:18:12.835Z,100057.00
2018-01-22T16:20:40.256Z,100061.00
2018-01-22T16:23:07.653Z,100066.66
2018-01-22T16:25:35.069Z,100074.53
2018-01-22T16:28:02.458Z,100083.94
2018-01-22T16:30:29.861Z,100096.86
2018-01-22T16:32:57.258Z,100092.97
2018-01-22T16:35:24.675Z,100098.05
2018-01-22T16:37:52.098Z,100100.88
2018-01-22T16:40:19.503Z,100105.09
2018-01-22T16:42:46.898Z,100120.83
2018-01-22T16:45:14.305Z,100134.88
2018-01-22T16:47:47.203Z,100129.27
2018-01-22T16:50:14.642Z,100128.09
2018-01-22T16:52:42.044Z,100134.34
2018-01-22T16:55:09.454Z,100139.80
2018-01-22T16:57:36.870Z,100151.10
2018-01-22T17:00:04.266Z,100160.65
2018-01-22T17:02:31.778Z,100168.14
2018-01-22T17:04:59.169Z,100167.22
2018-01-22T17:07:26.604Z,100175.80
2018-01-22T17:09:54.002Z,100186.41
2018-01-22T17:12:21.402Z,100197.88
2018-01-22T17:14:48.802Z,100201.97
2018-01-22T17:17:16.199Z,100203.94
2018-01-22T17:19:43.603Z,100208.23
2018-01-22T17:22:11.011Z,100214.02
2018-01-22T17:24:38.488Z,100210.14
2018-01-22T17:27:05.897Z,100212.08
2018-01-22T17:29:33.293Z,100204.94
2018-01-22T17:32:00.722Z,100214.25
2018-01-22T17:34:28.122Z,100215.25
2018-01-22T17:36:55.555Z,100223.89
2018-01-22T17:39:22.962Z,100222.84
2018-01-22T17:41:50.371Z,100234.71
2018-01-22T17:44:17.754Z,100246.52
2018-01-22T17:46:45.175Z,100246.05
2018-01-22T17:49:12.630Z,100242.89
2018-01-22T17:51:40.030Z,100242.12
2018-01-22T17:54:07.455Z,100241.50
2018-01-22T17:56:34.851Z,100250.41
2018-01-22T17:59:02.273Z,100262.66
2018-01-22T18:01:29.666Z,100261.70
2018-01-22T18:03:57.169Z,100270.85
2018-01-22T18:06:24.555Z,100266.50
2018-01-22T18:08:51.960Z,100277.52
2018-01-22T18:11:19.358Z,100283.71
2018-01-22T18:13:46.768Z,100285.27
2018-01-22T18:16:14.259Z,100290.42
2018-01-22T18:18:41.652Z,100302.64
2018-01-22T18:21:09.479Z,100304.42
2018-01-22T18:23:36.882Z,100308.31
2018-01-22T18:26:04.339Z,100310.97
2018-01-22T18:28:31.746Z,100310.10
2018-01-22T18:30:59.173Z,100312.88
2018-01-22T18:33:26.589Z,100310.62
2018-01-22T18:35:53.991Z,100306.47
2018-01-22T18:38:21.389Z,100302.07
2018-01-22T18:40:48.787Z,100308.63
2018-01-22T18:43:16.206Z,100304.86
2018-01-22T18:45:43.614Z,100310.99
2018-01-22T18:48:11.023Z,100301.09
2018-01-22T18:50:38.444Z,100309.16
2018-01-22T18:53:05.845Z,100304.20
2018-01-22T18:55:33.265Z,100307.89
2018-01-22T18:58:00.658Z,100309.84
2018-01-22T19:00:28.068Z,100315.85
2018-01-22T19:02:55.462Z,100314.26
2018-01-22T19:05:22.872Z,100319.13
2018-01-22T19:07:50.311Z,100336.09
2018-01-22T19:10:17.710Z,100334.75
2018-01-22T19:12:45.107Z,100331.34
2018-01-22T19:15:12.615Z,100339.78
2018-01-22T19:17:40.018Z,100347.60
2018-01-22T19:20:07.430Z,100341.81
2018-01-22T19:22:34.837Z,100345.28
2018-01-22T19:25:02.243Z,100357.03
2018-01-22T19:27:30.445Z,100355.31
2018-01-22T19:29:57.859Z,100366.82
2018-01-22T19:32:25.262Z,100355.19
2018-01-22T19:34:52.672Z,100359.23
2018-01-22T19:37:20.075Z,100364.39
2018-01-22T19:39:47.495Z,100373.67
2018-01-22T19:42:14.919Z,100382.23
2018-01-22T19:44:42.310Z,100383.45
2018-01-22T19:47:09.718Z,100389.91
2018-01-22T19:49:37.194Z,100392.53
2018-01-22T19:52:04.694Z,100395.84
2018-01-22T19:54:32.094Z,100406.01
2018-01-22T19:56:59.498Z,100412.20
2018-01-22T19:59:26.925Z,100422.08
2018-01-22T20:01:54.324Z,100412.32
2018-01-22T20:04:21.801Z,100409.18
2018-01-22T20:06:49.283Z,100424.73
2018-01-22T20:09:16.859Z,100431.83
2018-01-22T20:11:44.283Z,100429.28
2018-01-22T20:14:11.721Z,100435.12
2018-01-22T20:16:39.136Z,100435.38
2018-01-22T20:21:40.429Z,100441.16
2018-01-22T20:24:07.831Z,100438.28
2018-01-22T20:26:36.449Z,100447.94
2018-01-22T20:29:03.860Z,100446.95
2018-01-22T20:31:31.262Z,100441.91
2018-01-22T20:33:58.658Z,100451.09
2018-01-22T20:36:26.071Z,100456.88
2018-01-22T20:38:53.476Z,100463.38
2018-01-22T20:41:20.910Z,100467.70
2018-01-22T20:43:48.321Z,100475.64
2018-01-22T20:46:15.717Z,100482.89
2018-01-22T20:48:43.118Z,100485.03
2018-01-22T20:51:10.579Z,100493.38
2018-01-22T20:53:37.974Z,100492.47
2018-01-22T20:56:05.386Z,100498.66
2018-01-22T20:58:32.807Z,100502.49
2018-01-22T21:01:00.243Z,100500.64
2018-01-22T21:03:27.695Z,100504.31
2018-01-22T21:05:55.091Z,100507.67
2018-01-22T21:08:22.510Z,100505.41
2018-01-22T21:10:49.922Z,100509.50
2018-01-22T21:13:17.343Z,100511.48
2018-01-22T21:15:44.762Z,100517.47
2018-01-22T21:18:12.179Z,100514.38
2018-01-22T21:20:39.968Z,100515.27
2018-01-22T21:23:07.371Z,100515.11
2018-01-22T21:25:34.774Z,100522.84
2018-01-22T21:28:02.187Z,100517.81
2018-01-22T21:30:29.695Z,100524.57
2018-01-22T21:32:57.123Z,100524.33
2018-01-22T21:35:24.534Z,100525.69
2018-01-22T21:37:51.943Z,100525.17
2018-01-22T21:40:19.349Z,100524.00
2018-01-22T21:42:46.758Z,100527.16
2018-01-22T21:45:14.216Z,100533.82
2018-01-22T21:47:41.618Z,100540.86
2018-01-22T21:50:09.018Z,100550.15
2018-01-22T21:52:36.418Z,100548.41
2018-01-22T21:55:03.817Z,100551.00
2018-01-22T21:57:31.219Z,100548.53
2018-01-22T21:59:58.643Z,100553.94
2018-01-22T22:02:26.044Z,100558.22
2018-01-22T22:04:53.455Z,100560.48
2018-01-22T22:07:20.875Z,100556.28
2018-01-22T22:09:48.312Z,100563.33
2018-01-22T22:12:15.706Z,100567.69
2018-01-22T22:14:43.113Z,100574.99
2018-01-22T22:17:10.514Z,100588.72
2018-01-22T22:19:37.924Z,100592.36
2018-01-22T22:22:05.314Z,100586.08
2018-01-22T22:24:32.766Z,100596.56
2018-01-22T22:27:00.158Z,100593.84
2018-01-22T22:29:27.566Z,100593.64
2018-01-22T22:31:54.984Z,100588.20
2018-01-22T22:34:22.422Z,100593.00
2018-01-22T22:36:49.835Z,100587.27
2018-01-22T22:39:17.251Z,100593.53
2018-01-22T22:41:44.670Z,100599.87
2018-01-22T22:44:12.114Z,100610.34
2018-01-22T22:46:39.543Z,100613.23
2018-01-22T22:49:06.970Z,100624.45
2018-01-22T22:51:34.369Z,100625.87
2018-01-22T22:54:01.778Z,100632.52
2018-01-22T22:56:29.180Z,100626.66
2018-01-22T22:58:56.600Z,100636.64
2018-01-22T23:01:24.009Z,100634.41
2018-01-22T23:03:51.409Z,100637.91
2018-01-22T23:06:18.815Z,100637.34
2018-01-22T23:08:46.209Z,100653.19
2018-01-22T23:11:13.627Z,100653.33
2018-01-22T23:13:41.026Z,100656.76
2018-01-22T23:16:08.425Z,100659.58
2018-01-22T23:18:35.814Z,100663.28
2018-01-22T23:21:03.221Z,100670.07
2018-01-22T23:23:30.641Z,100672.61
2018-01-22T23:25:58.050Z,100679.94
2018-01-22T23:28:25.448Z,100680.17
2018-01-22T23:30:52.874Z,100687.40
2018-01-22T23:33:20.289Z,100699.61
2018-01-22T23:35:47.696Z,100704.00
2018-01-22T23:38:15.090Z,100708.36
2018-01-22T23:40:43.154Z,100708.53
2018-01-22T23:43:10.558Z,100715.14
2018-01-22T23:45:37.970Z,100729.23
2018-01-22T23:48:05.366Z,100733.39
2018-01-22T23:50:32.846Z,100739.45
2018-01-22T23:53:00.230Z,100747.30
2018-01-22T23:55:27.647Z,100755.17
2018-01-22T23:57:55.062Z,100746.37
